createdAt,value
2022-09-06T00:00:04.499Z,1018.72
2022-09-06T00:01:04.497Z,1018.70
2022-09-06T00:02:04.491Z,1018.69
2022-09-06T00:03:04.519Z,1018.68
2022-09-06T00:04:04.505Z,1018.71
2022-09-06T00:05:04.476Z,1018.70
2022-09-06T00:06:04.471Z,1018.76
2022-09-06T00:07:04.467Z,1018.74
2022-09-06T00:08:04.462Z,1018.76
2022-09-06T00:09:04.466Z,1018.76
2022-09-06T00:10:04.451Z,1018.78
2022-09-06T00:11:04.447Z,1018.76
2022-09-06T00:12:04.442Z,1018.73
2022-09-06T00:13:04.436Z,1018.73
2022-09-06T00:14:04.431Z,1018.73
2022-09-06T00:15:04.425Z,1018.68
2022-09-06T00:16:04.469Z,1018.73
2022-09-06T00:17:04.418Z,1018.71
2022-09-06T00:18:04.411Z,1018.67
2022-09-06T00:19:04.407Z,1018.74
2022-09-06T00:20:04.402Z,1018.69
2022-09-06T00:21:04.397Z,1018.70
2022-09-06T00:22:04.393Z,1018.72
2022-09-06T00:23:04.386Z,1018.70
2022-09-06T00:24:04.395Z,1018.68
2022-09-06T00:25:04.378Z,1018.69
2022-09-06T00:26:04.405Z,1018.72
2022-09-06T00:27:04.370Z,1018.71
2022-09-06T00:28:04.367Z,1018.66
2022-09-06T00:29:04.358Z,1018.68
2022-09-06T00:30:04.352Z,1018.70
2022-09-06T00:31:04.422Z,1018.68
2022-09-06T00:32:04.343Z,1018.66
2022-09-06T00:33:04.338Z,1018.68
2022-09-06T00:34:04.332Z,1018.66
2022-09-06T00:35:04.330Z,1018.67
2022-09-06T00:36:04.321Z,1018.67
2022-09-06T00:37:04.315Z,1018.63
2022-09-06T00:38:04.316Z,1018.69
2022-09-06T00:39:04.309Z,1018.74
2022-09-06T00:40:04.393Z,1018.73
2022-09-06T00:41:04.304Z,1018.69
2022-09-06T00:42:04.292Z,1018.71
2022-09-06T00:43:04.288Z,1018.71
2022-09-06T00:44:04.285Z,1018.73
2022-09-06T00:45:04.278Z,1018.70
2022-09-06T00:46:04.299Z,1018.67
2022-09-06T00:47:04.266Z,1018.79
2022-09-06T00:48:04.261Z,1018.71
2022-09-06T00:49:04.256Z,1018.68
2022-09-06T00:50:04.250Z,1018.70
2022-09-06T00:51:04.249Z,1018.72
2022-09-06T00:52:04.245Z,1018.70
2022-09-06T00:53:04.236Z,1018.72
2022-09-06T00:54:04.229Z,1018.72
2022-09-06T00:55:04.227Z,1018.73
2022-09-06T00:56:04.220Z,1018.71
2022-09-06T00:57:04.216Z,1018.73
2022-09-06T00:58:04.211Z,1018.68
2022-09-06T00:59:04.206Z,1018.71
2022-09-06T01:00:04.199Z,1018.75
2022-09-06T01:01:04.209Z,1018.70
2022-09-06T01:02:04.312Z,1018.74
2022-09-06T01:03:04.185Z,1018.70
2022-09-06T01:04:04.180Z,1018.73
2022-09-06T01:05:04.174Z,1018.72
2022-09-06T01:06:04.168Z,1018.81
2022-09-06T01:07:04.163Z,1018.75
2022-09-06T01:08:04.159Z,1018.70
2022-09-06T01:09:04.154Z,1018.67
2022-09-06T01:10:04.146Z,1018.65
2022-09-06T01:11:04.144Z,1018.66
2022-09-06T01:12:04.139Z,1018.59
2022-09-06T01:13:04.132Z,1018.57
2022-09-06T01:14:04.128Z,1018.56
2022-09-06T01:15:04.121Z,1018.62
2022-09-06T01:16:04.181Z,1018.56
2022-09-06T01:17:04.111Z,1018.50
2022-09-06T01:18:04.106Z,1018.49
2022-09-06T01:19:04.100Z,1018.51
2022-09-06T01:20:04.094Z,1018.52
2022-09-06T01:21:04.092Z,1018.56
2022-09-06T01:22:04.085Z,1018.51
2022-09-06T01:23:04.078Z,1018.52
2022-09-06T01:24:04.076Z,1018.50
2022-09-06T01:25:04.070Z,1018.49
2022-09-06T01:26:04.064Z,1018.48
2022-09-06T01:27:04.057Z,1018.49
2022-09-06T01:28:04.053Z,1018.44
2022-09-06T01:29:04.048Z,1018.49
2022-09-06T01:30:04.043Z,1018.51
2022-09-06T01:32:35.895Z,1018.55
2022-09-06T01:33:35.871Z,1018.48
2022-09-06T01:35:39.909Z,1018.49
2022-09-06T01:36:54.388Z,1018.41
2022-09-06T01:38:32.786Z,1018.45
2022-09-06T01:39:32.808Z,1018.43
2022-09-06T01:41:36.763Z,1018.43
2022-09-06T01:42:36.748Z,1018.39
2022-09-06T01:44:40.753Z,1018.41
2022-09-06T01:45:40.747Z,1018.40
2022-09-06T01:47:44.740Z,1018.45
2022-09-06T01:48:44.725Z,1018.47
2022-09-06T01:50:48.722Z,1018.43
2022-09-06T01:51:48.705Z,1018.41
2022-09-06T01:53:52.714Z,1018.42
2022-09-06T01:54:52.705Z,1018.41
2022-09-06T01:56:56.728Z,1018.43
2022-09-06T01:57:56.712Z,1018.41
2022-09-06T02:00:00.689Z,1018.43
2022-09-06T02:01:00.683Z,1018.41
2022-09-06T02:03:04.697Z,1018.36
2022-09-06T02:04:04.681Z,1018.38
2022-09-06T02:06:08.686Z,1018.40
2022-09-06T02:07:08.669Z,1018.41
2022-09-06T02:09:01.600Z,1018.46
2022-09-06T02:10:01.589Z,1018.44
2022-09-06T02:12:05.704Z,1018.41
2022-09-06T02:13:05.688Z,1018.44
2022-09-06T02:15:09.680Z,1018.42
2022-09-06T02:16:09.675Z,1018.33
2022-09-06T02:18:02.779Z,1018.31
2022-09-06T02:19:02.765Z,1018.42
2022-09-06T02:21:06.780Z,1018.43
2022-09-06T02:22:06.751Z,1018.46
2022-09-06T02:24:10.773Z,1018.42
2022-09-06T02:25:10.752Z,1018.44
2022-09-06T02:27:14.797Z,1018.40
2022-09-06T02:28:14.778Z,1018.33
2022-09-06T02:30:07.881Z,1018.34
2022-09-06T02:31:07.896Z,1018.40
2022-09-06T02:33:11.885Z,1018.37
2022-09-06T02:34:11.871Z,1018.37
2022-09-06T02:36:04.976Z,1018.31
2022-09-06T02:37:04.957Z,1018.29
2022-09-06T02:38:57.860Z,1018.24
2022-09-06T02:39:57.926Z,1018.29
2022-09-06T02:42:01.868Z,1018.29
2022-09-06T02:43:01.851Z,1018.29
2022-09-06T02:44:54.949Z,1018.30
2022-09-06T02:45:54.994Z,1018.31
2022-09-06T02:47:58.923Z,1018.34
2022-09-06T02:48:58.907Z,1018.35
2022-09-06T02:50:52.015Z,1018.39
2022-09-06T02:51:52.000Z,1018.44
2022-09-06T02:53:55.990Z,1018.48
2022-09-06T02:54:55.972Z,1018.45
2022-09-06T02:56:59.973Z,1018.46
2022-09-06T02:57:59.948Z,1018.47
2022-09-06T03:00:03.987Z,1018.35
2022-09-06T03:01:04.023Z,1018.35
2022-09-06T03:03:08.032Z,1018.33
2022-09-06T03:04:08.006Z,1018.33
2022-09-06T03:06:01.129Z,1018.32
2022-09-06T03:07:01.108Z,1018.35
2022-09-06T03:08:54.030Z,1018.30
2022-09-06T03:09:54.021Z,1018.33
2022-09-06T03:11:58.029Z,1018.26
2022-09-06T03:12:57.988Z,1018.24
2022-09-06T03:15:01.985Z,1018.19
2022-09-06T03:16:01.977Z,1018.20
2022-09-06T03:18:05.983Z,1018.20
2022-09-06T03:19:05.970Z,1018.24
2022-09-06T03:21:09.991Z,1018.24
2022-09-06T03:22:09.971Z,1018.20
2022-09-06T03:24:03.077Z,1018.25
2022-09-06T03:25:03.068Z,1018.17
2022-09-06T03:27:07.071Z,1018.23
2022-09-06T03:28:07.056Z,1018.21
2022-09-06T03:30:11.321Z,1018.11
2022-09-06T03:31:11.360Z,1018.17
2022-09-06T03:33:04.603Z,1018.14
2022-09-06T03:34:07.977Z,1018.08
2022-09-06T03:36:08.573Z,1018.12
2022-09-06T03:37:08.553Z,1018.15
2022-09-06T03:39:01.465Z,1018.16
2022-09-06T03:40:01.524Z,1018.19
2022-09-06T03:42:05.438Z,1018.10
2022-09-06T03:43:05.416Z,1018.18
2022-09-06T03:45:09.411Z,1018.12
2022-09-06T03:46:09.443Z,1018.10
2022-09-06T03:48:02.495Z,1018.09
2022-09-06T03:49:02.483Z,1018.10
2022-09-06T03:50:55.429Z,1018.11
2022-09-06T03:51:55.397Z,1018.07
2022-09-06T03:53:59.377Z,1018.12
2022-09-06T03:54:59.363Z,1018.10
2022-09-06T03:56:52.282Z,1018.11
2022-09-06T03:57:52.266Z,1018.13
2022-09-06T03:59:56.263Z,1018.14
2022-09-06T04:00:56.282Z,1018.18
2022-09-06T04:03:01.815Z,1018.11
2022-09-06T04:04:00.216Z,1018.10
2022-09-06T04:06:04.202Z,1018.15
2022-09-06T04:07:04.182Z,1018.14
2022-09-06T04:08:04.172Z,1018.15
2022-09-06T04:09:04.194Z,1018.13
2022-09-06T04:10:04.166Z,1018.18
2022-09-06T04:11:04.168Z,1018.16
2022-09-06T04:12:04.149Z,1018.19
2022-09-06T04:13:04.143Z,1018.14
2022-09-06T04:14:04.135Z,1018.14
2022-09-06T04:15:04.131Z,1018.13
2022-09-06T04:16:04.133Z,1018.12
2022-09-06T04:17:04.162Z,1018.13
2022-09-06T04:18:09.015Z,1018.10
2022-09-06T04:19:04.104Z,1018.10
2022-09-06T04:20:04.100Z,1018.10
2022-09-06T04:21:04.094Z,1018.08
2022-09-06T04:22:04.094Z,1018.08
2022-09-06T04:23:04.084Z,1018.16
2022-09-06T04:24:04.081Z,1018.11
2022-09-06T04:25:04.071Z,1018.01
2022-09-06T04:26:04.070Z,1018.10
2022-09-06T04:27:04.056Z,1018.07
2022-09-06T04:28:04.055Z,1018.07
2022-09-06T04:29:04.046Z,1018.10
2022-09-06T04:30:04.044Z,1018.06
2022-09-06T04:31:05.204Z,1018.06
2022-09-06T04:32:04.067Z,1018.07
2022-09-06T04:33:04.023Z,1018.06
2022-09-06T04:34:04.021Z,1018.00
2022-09-06T04:35:04.010Z,1018.06
2022-09-06T04:36:04.002Z,1018.05
2022-09-06T04:37:04.000Z,1018.06
2022-09-06T04:38:03.995Z,1018.05
2022-09-06T04:39:03.984Z,1018.05
2022-09-06T04:40:04.057Z,1018.02
2022-09-06T04:41:03.972Z,1017.99
2022-09-06T04:42:04.030Z,1017.98
2022-09-06T04:43:03.962Z,1018.01
2022-09-06T04:44:03.957Z,1017.94
2022-09-06T04:45:03.975Z,1017.99
2022-09-06T04:46:04.009Z,1017.99
2022-09-06T04:47:07.519Z,1017.96
2022-09-06T04:48:03.932Z,1017.99
2022-09-06T04:49:03.925Z,1017.95
2022-09-06T04:50:03.914Z,1017.97
2022-09-06T04:51:03.912Z,1017.91
2022-09-06T04:52:03.910Z,1017.89
2022-09-06T04:53:03.903Z,1017.86
2022-09-06T04:54:03.894Z,1017.84
2022-09-06T04:55:03.893Z,1017.91
2022-09-06T04:56:03.883Z,1017.87
2022-09-06T04:57:03.880Z,1017.87
2022-09-06T04:58:03.870Z,1017.83
2022-09-06T04:59:03.864Z,1017.85
2022-09-06T05:00:03.856Z,1017.81
2022-09-06T05:01:03.917Z,1017.81
2022-09-06T05:02:03.867Z,1017.80
2022-09-06T05:03:03.851Z,1017.87
2022-09-06T05:04:03.845Z,1017.84
2022-09-06T05:05:03.830Z,1017.82
2022-09-06T05:06:03.823Z,1017.85
2022-09-06T05:07:03.816Z,1017.84
2022-09-06T05:08:03.811Z,1017.83
2022-09-06T05:09:03.812Z,1017.82
2022-09-06T05:10:03.799Z,1017.81
2022-09-06T05:11:03.796Z,1017.80
2022-09-06T05:12:03.785Z,1017.84
2022-09-06T05:13:03.788Z,1017.84
2022-09-06T05:14:03.770Z,1017.76
2022-09-06T05:15:03.771Z,1017.84
2022-09-06T05:16:03.795Z,1017.80
2022-09-06T05:17:03.765Z,1017.81
2022-09-06T05:18:03.751Z,1017.76
2022-09-06T05:19:03.748Z,1017.72
2022-09-06T05:20:03.738Z,1017.76
2022-09-06T05:21:03.739Z,1017.70
2022-09-06T05:22:03.726Z,1017.70
2022-09-06T05:23:03.724Z,1017.76
2022-09-06T05:24:03.714Z,1017.76
2022-09-06T05:25:03.713Z,1017.75
2022-09-06T05:26:03.709Z,1017.79
2022-09-06T05:27:03.696Z,1017.81
2022-09-06T05:28:03.691Z,1017.75
2022-09-06T05:29:03.689Z,1017.74
2022-09-06T05:30:03.682Z,1017.76
2022-09-06T05:31:03.675Z,1017.78
2022-09-06T05:32:03.759Z,1017.76
2022-09-06T05:33:03.664Z,1017.75
2022-09-06T05:34:03.659Z,1017.77
2022-09-06T05:35:03.658Z,1017.76
2022-09-06T05:36:03.646Z,1017.71
2022-09-06T05:37:03.651Z,1017.69
2022-09-06T05:38:03.643Z,1017.72
2022-09-06T05:39:03.636Z,1017.74
2022-09-06T05:40:03.720Z,1017.66
2022-09-06T05:41:03.634Z,1017.71
2022-09-06T05:42:03.613Z,1017.73
2022-09-06T05:43:03.617Z,1017.72
2022-09-06T05:44:03.610Z,1017.75
2022-09-06T05:45:03.628Z,1017.79
2022-09-06T05:46:03.630Z,1017.80
2022-09-06T05:47:03.592Z,1017.82
2022-09-06T05:48:03.581Z,1017.78
2022-09-06T05:49:03.578Z,1017.84
2022-09-06T05:50:03.575Z,1017.85
2022-09-06T05:51:03.567Z,1017.85
2022-09-06T05:52:03.562Z,1017.88
2022-09-06T05:53:03.559Z,1017.86
2022-09-06T05:54:03.559Z,1017.94
2022-09-06T05:55:03.546Z,1017.93
2022-09-06T05:56:03.543Z,1017.92
2022-09-06T05:57:03.541Z,1017.91
2022-09-06T05:58:03.541Z,1017.90
2022-09-06T05:59:03.530Z,1017.89
2022-09-06T06:00:03.531Z,1017.93
2022-09-06T06:01:03.571Z,1017.94
2022-09-06T06:02:07.207Z,1017.90
2022-09-06T06:03:03.516Z,1017.89
2022-09-06T06:04:03.506Z,1017.90
2022-09-06T06:05:03.507Z,1017.87
2022-09-06T06:06:03.546Z,1017.89
2022-09-06T06:07:03.506Z,1017.92
2022-09-06T06:08:03.493Z,1017.90
2022-09-06T06:09:03.488Z,1017.76
2022-09-06T06:10:03.482Z,1017.76
2022-09-06T06:11:03.480Z,1017.83
2022-09-06T06:12:03.561Z,1017.87
2022-09-06T06:13:03.500Z,1017.81
2022-09-06T06:14:03.468Z,1017.80
2022-09-06T06:15:03.467Z,1017.77
2022-09-06T06:16:03.551Z,1017.71
2022-09-06T06:17:03.456Z,1017.76
2022-09-06T06:18:03.450Z,1017.79
2022-09-06T06:19:03.449Z,1017.76
2022-09-06T06:20:03.440Z,1017.76
2022-09-06T06:21:03.448Z,1017.74
2022-09-06T06:22:03.438Z,1017.69
2022-09-06T06:23:03.437Z,1017.67
2022-09-06T06:24:03.428Z,1017.64
2022-09-06T06:25:03.423Z,1017.68
2022-09-06T06:26:03.423Z,1017.65
2022-09-06T06:27:03.415Z,1017.65
2022-09-06T06:28:03.412Z,1017.60
2022-09-06T06:29:03.409Z,1017.65
2022-09-06T06:30:03.406Z,1017.60
2022-09-06T06:31:03.408Z,1017.63
2022-09-06T06:32:03.442Z,1017.59
2022-09-06T06:33:03.392Z,1017.60
2022-09-06T06:34:03.387Z,1017.61
2022-09-06T06:35:03.412Z,1017.64
2022-09-06T06:36:03.382Z,1017.60
2022-09-06T06:37:03.382Z,1017.59
2022-09-06T06:38:03.376Z,1017.58
2022-09-06T06:39:03.371Z,1017.59
2022-09-06T06:40:03.490Z,1017.55
2022-09-06T06:41:06.667Z,1017.54
2022-09-06T06:42:03.359Z,1017.58
2022-09-06T06:43:03.357Z,1017.58
2022-09-06T06:44:03.353Z,1017.57
2022-09-06T06:45:03.358Z,1017.58
2022-09-06T06:46:03.400Z,1017.60
2022-09-06T06:47:03.346Z,1017.65
2022-09-06T06:48:03.340Z,1017.65
2022-09-06T06:49:03.341Z,1017.64
2022-09-06T06:50:03.334Z,1017.76
2022-09-06T06:51:03.335Z,1017.64
2022-09-06T06:52:03.326Z,1017.69
2022-09-06T06:53:03.327Z,1017.70
2022-09-06T06:54:03.319Z,1017.70
2022-09-06T06:55:03.342Z,1017.69
2022-09-06T06:56:03.315Z,1017.71
2022-09-06T06:57:03.315Z,1017.67
2022-09-06T06:58:03.308Z,1017.66
2022-09-06T06:59:03.307Z,1017.65
2022-09-06T07:00:03.305Z,1017.65
2022-09-06T07:01:03.390Z,1017.68
2022-09-06T07:02:03.416Z,1017.64
2022-09-06T07:03:03.297Z,1017.63
2022-09-06T07:04:03.302Z,1017.62
2022-09-06T07:06:10.750Z,1017.66
2022-09-06T07:08:03.285Z,1017.63
2022-09-06T07:09:03.280Z,1017.66
2022-09-06T07:11:03.273Z,1017.65
2022-09-06T07:12:03.265Z,1017.64
2022-09-06T07:13:03.267Z,1017.55
2022-09-06T07:14:03.264Z,1017.63
2022-09-06T07:15:03.266Z,1017.64
2022-09-06T07:16:03.306Z,1017.61
2022-09-06T07:17:06.145Z,1017.64
2022-09-06T07:18:03.258Z,1017.66
2022-09-06T07:19:03.423Z,1017.61
2022-09-06T07:20:18.678Z,1017.76
2022-09-06T07:22:05.752Z,1017.69
2022-09-06T07:25:03.238Z,1017.68
2022-09-06T07:26:03.240Z,1017.70
2022-09-06T07:28:05.916Z,1017.68
2022-09-06T07:29:03.224Z,1017.73
2022-09-06T07:30:03.223Z,1017.69
2022-09-06T07:31:03.224Z,1017.64
2022-09-06T07:33:03.212Z,1017.67
2022-09-06T07:34:03.209Z,1017.65
2022-09-06T07:35:03.207Z,1017.63
2022-09-06T07:36:03.204Z,1017.63
2022-09-06T07:37:03.198Z,1017.63
2022-09-06T07:38:03.193Z,1017.64
2022-09-06T07:39:03.198Z,1017.62
2022-09-06T07:40:03.259Z,1017.59
2022-09-06T07:41:03.191Z,1017.59
2022-09-06T07:42:03.180Z,1017.58
2022-09-06T07:43:03.184Z,1017.61
2022-09-06T07:44:03.174Z,1017.61
2022-09-06T07:45:03.169Z,1017.64
2022-09-06T07:46:03.193Z,1017.57
2022-09-06T07:48:03.168Z,1017.63
2022-09-06T07:49:03.156Z,1017.61
2022-09-06T07:51:03.150Z,1017.65
2022-09-06T07:54:31.266Z,1017.56
2022-09-06T07:55:03.133Z,1017.64
2022-09-06T07:56:03.127Z,1017.55
2022-09-06T07:57:03.124Z,1017.59
2022-09-06T07:58:03.120Z,1017.54
2022-09-06T07:59:03.117Z,1017.56
2022-09-06T08:00:03.114Z,1017.54
2022-09-06T08:01:03.166Z,1017.57
2022-09-06T08:02:03.175Z,1017.56
2022-09-06T08:03:03.103Z,1017.58
2022-09-06T08:04:03.098Z,1017.67
2022-09-06T08:05:03.217Z,1017.57
2022-09-06T08:06:10.564Z,1017.62
2022-09-06T08:09:03.085Z,1017.47
2022-09-06T08:10:03.072Z,1017.53
2022-09-06T08:11:03.070Z,1017.55
2022-09-06T08:12:03.063Z,1017.51
2022-09-06T08:13:03.064Z,1017.49
2022-09-06T08:14:03.055Z,1017.38
2022-09-06T08:15:03.054Z,1017.47
2022-09-06T08:16:03.090Z,1017.50
2022-09-06T08:17:03.049Z,1017.46
2022-09-06T08:18:03.040Z,1017.49
2022-09-06T08:19:03.040Z,1017.47
2022-09-06T08:20:03.032Z,1017.47
2022-09-06T08:21:03.027Z,1017.48
2022-09-06T08:22:03.030Z,1017.43
2022-09-06T08:23:03.025Z,1017.40
2022-09-06T08:24:03.021Z,1017.47
2022-09-06T08:25:03.014Z,1017.42
2022-09-06T08:26:03.030Z,1017.44
2022-09-06T08:27:03.007Z,1017.42
2022-09-06T08:28:03.011Z,1017.48
2022-09-06T08:29:02.998Z,1017.45
2022-09-06T08:30:02.995Z,1017.46
2022-09-06T08:31:02.989Z,1017.46
2022-09-06T08:32:03.095Z,1017.53
2022-09-06T08:33:02.989Z,1017.48
2022-09-06T08:34:02.980Z,1017.49
2022-09-06T08:35:02.979Z,1017.53
2022-09-06T08:36:02.972Z,1017.49
2022-09-06T08:37:02.971Z,1017.51
2022-09-06T08:38:02.970Z,1017.57
2022-09-06T08:39:02.958Z,1017.54
2022-09-06T08:40:03.016Z,1017.59
2022-09-06T08:41:03.053Z,1017.57
2022-09-06T08:42:02.959Z,1017.56
2022-09-06T08:43:02.949Z,1017.64
2022-09-06T08:45:02.949Z,1017.52
2022-09-06T08:46:02.937Z,1017.53
2022-09-06T08:47:02.979Z,1017.50
2022-09-06T08:48:02.931Z,1017.48
2022-09-06T08:49:02.922Z,1017.46
2022-09-06T08:50:02.928Z,1017.44
2022-09-06T08:51:02.919Z,1017.43
2022-09-06T08:52:02.918Z,1017.46
2022-09-06T08:53:18.462Z,1017.46
2022-09-06T08:54:02.908Z,1017.42
2022-09-06T08:55:02.908Z,1017.42
2022-09-06T08:56:02.899Z,1017.36
2022-09-06T08:57:02.900Z,1017.40
2022-09-06T08:58:02.895Z,1017.45
2022-09-06T08:59:02.889Z,1017.37
2022-09-06T09:00:02.899Z,1017.35
2022-09-06T09:01:02.901Z,1017.39
2022-09-06T09:02:02.943Z,1017.38
2022-09-06T09:03:02.877Z,1017.37
2022-09-06T09:04:02.873Z,1017.39
2022-09-06T09:05:02.870Z,1017.38
2022-09-06T09:06:02.867Z,1017.30
2022-09-06T09:07:02.864Z,1017.32
2022-09-06T09:08:02.856Z,1017.31
2022-09-06T09:09:02.855Z,1017.32
2022-09-06T09:10:02.853Z,1017.31
2022-09-06T09:11:02.849Z,1017.37
2022-09-06T09:12:02.842Z,1017.38
2022-09-06T09:13:02.840Z,1017.29
2022-09-06T09:14:02.842Z,1017.38
2022-09-06T09:15:02.844Z,1017.28
2022-09-06T09:16:02.871Z,1017.31
2022-09-06T09:17:02.836Z,1017.26
2022-09-06T09:18:02.828Z,1017.28
2022-09-06T09:19:02.828Z,1017.26
2022-09-06T09:20:02.843Z,1017.30
2022-09-06T09:21:02.816Z,1017.31
2022-09-06T09:22:02.810Z,1017.30
2022-09-06T09:23:02.809Z,1017.27
2022-09-06T09:24:02.812Z,1017.25
2022-09-06T09:25:02.803Z,1017.27
2022-09-06T09:26:02.800Z,1017.27
2022-09-06T09:27:02.805Z,1017.25
2022-09-06T09:28:02.789Z,1017.25
2022-09-06T09:29:02.789Z,1017.24
2022-09-06T09:31:02.815Z,1017.25
2022-09-06T09:32:02.835Z,1017.20
2022-09-06T09:33:02.786Z,1017.20
2022-09-06T09:34:02.777Z,1017.20
2022-09-06T09:35:02.775Z,1017.15
2022-09-06T09:36:02.777Z,1017.15
2022-09-06T09:38:07.841Z,1017.11
2022-09-06T09:39:02.760Z,1017.06
2022-09-06T09:40:02.837Z,1017.07
2022-09-06T09:41:02.752Z,1017.04
2022-09-06T09:42:02.751Z,1016.99
2022-09-06T09:43:02.749Z,1016.96
2022-09-06T09:44:05.013Z,1016.96
2022-09-06T09:45:02.741Z,1017.02
2022-09-06T09:46:02.737Z,1016.99
2022-09-06T09:47:02.787Z,1016.97
2022-09-06T09:48:02.727Z,1017.02
2022-09-06T09:49:02.730Z,1016.95
2022-09-06T09:50:02.725Z,1016.91
2022-09-06T09:51:02.734Z,1016.94
2022-09-06T09:52:02.725Z,1016.90
2022-09-06T09:53:02.720Z,1016.91
2022-09-06T09:54:02.717Z,1016.88
2022-09-06T09:55:02.719Z,1016.96
2022-09-06T09:56:02.712Z,1016.93
2022-09-06T09:57:04.551Z,1016.92
2022-09-06T09:58:02.709Z,1016.89
2022-09-06T09:59:02.702Z,1016.91
2022-09-06T10:00:02.699Z,1016.91
2022-09-06T10:01:02.721Z,1016.97
2022-09-06T10:02:02.699Z,1016.95
2022-09-06T10:03:02.741Z,1016.92
2022-09-06T10:05:02.689Z,1016.85
2022-09-06T10:06:03.380Z,1016.78
2022-09-06T10:07:10.282Z,1016.73
2022-09-06T10:08:02.679Z,1016.73
2022-09-06T10:09:02.687Z,1016.72
2022-09-06T10:10:02.676Z,1016.70
2022-09-06T10:11:02.675Z,1016.72
2022-09-06T10:12:02.671Z,1016.73
2022-09-06T10:13:02.672Z,1016.97
2022-09-06T10:14:02.691Z,1016.73
2022-09-06T10:15:06.883Z,1016.76
2022-09-06T10:16:02.715Z,1016.74
2022-09-06T10:17:02.666Z,1016.73
2022-09-06T10:18:02.658Z,1016.78
2022-09-06T10:19:02.657Z,1016.70
2022-09-06T10:20:02.658Z,1016.72
2022-09-06T10:21:02.647Z,1016.72
2022-09-06T10:22:02.649Z,1016.73
2022-09-06T10:23:02.646Z,1016.72
2022-09-06T10:25:02.652Z,1016.72
2022-09-06T10:26:02.644Z,1016.71
2022-09-06T10:27:02.641Z,1016.77
2022-09-06T10:28:10.999Z,1016.71
2022-09-06T10:29:02.633Z,1016.71
2022-09-06T10:30:02.630Z,1016.69
2022-09-06T10:31:02.699Z,1016.68
2022-09-06T10:32:02.624Z,1016.71
2022-09-06T10:33:02.630Z,1016.66
2022-09-06T10:34:02.619Z,1016.67
2022-09-06T10:35:02.621Z,1016.67
2022-09-06T10:36:02.623Z,1016.65
2022-09-06T10:37:02.616Z,1016.62
2022-09-06T10:38:02.620Z,1016.64
2022-09-06T10:39:04.072Z,1016.70
2022-09-06T10:40:02.655Z,1016.66
2022-09-06T10:41:02.605Z,1016.57
2022-09-06T10:42:02.610Z,1016.62
2022-09-06T10:43:02.599Z,1016.58
2022-09-06T10:44:02.597Z,1016.60
2022-09-06T10:45:02.597Z,1016.57
2022-09-06T10:46:02.634Z,1016.59
2022-09-06T10:47:02.598Z,1016.56
2022-09-06T10:48:02.592Z,1016.54
2022-09-06T10:49:02.588Z,1016.50
2022-09-06T10:50:02.586Z,1016.51
2022-09-06T10:51:02.583Z,1016.53
2022-09-06T10:52:02.590Z,1016.53
2022-09-06T10:53:02.588Z,1016.50
2022-09-06T10:54:02.573Z,1016.50
2022-09-06T10:55:02.574Z,1016.44
2022-09-06T10:56:09.733Z,1016.45
2022-09-06T10:58:22.130Z,1016.44
2022-09-06T11:00:59.669Z,1016.38
2022-09-06T11:01:59.723Z,1016.40
2022-09-06T11:04:06.679Z,1016.43
2022-09-06T11:06:56.564Z,1016.45
2022-09-06T11:10:00.542Z,1016.37
2022-09-06T11:11:00.534Z,1016.37
2022-09-06T11:13:04.557Z,1016.33
2022-09-06T11:14:05.728Z,1016.34
2022-09-06T11:15:57.683Z,1016.35
2022-09-06T11:16:57.634Z,1016.34
2022-09-06T11:19:01.671Z,1016.24
2022-09-06T11:20:01.659Z,1016.28
2022-09-06T11:22:05.675Z,1016.30
2022-09-06T11:23:05.663Z,1016.34
2022-09-06T11:25:09.646Z,1016.35
2022-09-06T11:26:09.642Z,1016.31
2022-09-06T11:28:02.755Z,1016.22
2022-09-06T11:29:02.742Z,1016.37
2022-09-06T11:31:06.994Z,1016.34
2022-09-06T11:32:22.094Z,1016.27
2022-09-06T11:34:10.722Z,1016.24
2022-09-06T11:35:10.710Z,1016.26
2022-09-06T11:37:03.622Z,1016.19
2022-09-06T11:38:03.609Z,1016.21
2022-09-06T11:41:10.381Z,1016.13
2022-09-06T11:43:00.709Z,1016.13
2022-09-06T11:44:00.705Z,1016.13
2022-09-06T11:46:04.686Z,1016.17
2022-09-06T11:47:04.674Z,1016.10
2022-09-06T11:48:57.787Z,1016.07
2022-09-06T11:49:57.774Z,1016.11
2022-09-06T11:51:50.882Z,1016.10
2022-09-06T11:52:50.869Z,1016.08
2022-09-06T11:54:54.892Z,1016.08
2022-09-06T11:55:54.881Z,1016.10
2022-09-06T11:57:58.907Z,1016.07
2022-09-06T11:58:58.893Z,1016.03
2022-09-06T12:01:02.888Z,1016.05
2022-09-06T12:02:02.874Z,1016.05
2022-09-06T12:04:07.765Z,1016.02
2022-09-06T12:05:06.859Z,1016.03
2022-09-06T12:06:59.799Z,1016.02
2022-09-06T12:07:59.765Z,1015.97
2022-09-06T12:10:03.772Z,1016.03
2022-09-06T12:11:03.769Z,1015.97
2022-09-06T12:12:56.888Z,1015.94
2022-09-06T12:13:56.904Z,1015.93
2022-09-06T12:16:00.971Z,1015.99
2022-09-06T12:17:00.879Z,1015.96
2022-09-06T12:19:04.879Z,1015.99
2022-09-06T12:20:04.935Z,1015.99
2022-09-06T12:22:08.880Z,1015.97
2022-09-06T12:23:08.868Z,1015.98
2022-09-06T12:25:12.855Z,1015.93
2022-09-06T12:26:12.847Z,1015.98
2022-09-06T12:28:05.960Z,1015.88
2022-09-06T12:29:05.948Z,1015.88
2022-09-06T12:31:18.001Z,1015.79
2022-09-06T12:32:09.945Z,1015.85
2022-09-06T12:34:03.063Z,1015.80
2022-09-06T12:36:55.975Z,1015.80
2022-09-06T12:37:55.964Z,1015.77
2022-09-06T12:40:00.021Z,1015.79
2022-09-06T12:40:59.947Z,1015.75
2022-09-06T12:43:03.950Z,1015.70
2022-09-06T12:44:03.941Z,1015.74
2022-09-06T12:46:08.018Z,1015.73
2022-09-06T12:47:07.937Z,1015.73
2022-09-06T12:49:01.051Z,1015.65
2022-09-06T12:50:01.042Z,1015.68
2022-09-06T12:52:05.032Z,1015.66
2022-09-06T12:53:05.023Z,1015.63
2022-09-06T12:55:09.018Z,1015.64
2022-09-06T12:56:09.008Z,1015.59
2022-09-06T12:58:13.023Z,1015.54
2022-09-06T12:59:13.012Z,1015.50
2022-09-06T13:01:06.127Z,1015.53
2022-09-06T13:02:06.233Z,1015.52
2022-09-06T13:03:59.040Z,1015.45
2022-09-06T13:04:59.033Z,1015.43
2022-09-06T13:06:51.965Z,1015.52
2022-09-06T13:07:51.955Z,1015.51
2022-09-06T13:09:55.951Z,1015.43
2022-09-06T13:10:55.946Z,1015.45
2022-09-06T13:12:59.939Z,1015.43
2022-09-06T13:13:59.928Z,1015.43
2022-09-06T13:16:03.962Z,1015.44
2022-09-06T13:17:03.921Z,1015.41
2022-09-06T13:19:07.915Z,1015.41
2022-09-06T13:20:07.908Z,1015.38
2022-09-06T13:22:11.918Z,1015.45
2022-09-06T13:23:11.915Z,1015.37
2022-09-06T13:25:18.654Z,1015.38
2022-09-06T13:26:15.916Z,1015.39
2022-09-06T13:28:19.918Z,1015.30
2022-09-06T13:29:19.907Z,1015.28
2022-09-06T13:31:23.919Z,1015.28
2022-09-06T13:32:23.930Z,1015.24
2022-09-06T13:34:27.899Z,1015.24
2022-09-06T13:35:27.893Z,1015.31
2022-09-06T13:37:21.008Z,1015.31
2022-09-06T13:38:20.998Z,1015.30
2022-09-06T13:40:14.150Z,1015.33
2022-09-06T13:41:16.515Z,1015.29
2022-09-06T13:43:07.211Z,1015.21
2022-09-06T13:44:07.210Z,1015.20
2022-09-06T13:46:11.231Z,1015.18
2022-09-06T13:47:11.192Z,1015.18
2022-09-06T13:49:04.300Z,1015.14
2022-09-06T13:50:04.293Z,1015.16
2022-09-06T13:52:08.286Z,1015.11
2022-09-06T13:53:08.271Z,1015.15
2022-09-06T13:55:12.290Z,1015.12
2022-09-06T13:56:12.278Z,1015.10
2022-09-06T13:58:16.283Z,1015.10
2022-09-06T13:59:16.275Z,1015.10
2022-09-06T14:01:09.649Z,1015.12
2022-09-06T14:02:09.628Z,1015.11
2022-09-06T14:04:13.615Z,1015.17
2022-09-06T14:05:13.598Z,1015.09
2022-09-06T14:07:06.532Z,1015.10
2022-09-06T14:08:06.520Z,1015.08
2022-09-06T14:10:10.545Z,1015.06
2022-09-06T14:11:10.532Z,1015.08
2022-09-06T14:13:14.542Z,1015.03
2022-09-06T14:14:14.567Z,1015.07
2022-09-06T14:16:07.708Z,1015.04
2022-09-06T14:17:07.633Z,1015.16
2022-09-06T14:19:11.619Z,1015.07
2022-09-06T14:20:11.615Z,1015.10
2022-09-06T14:22:15.649Z,1015.11
2022-09-06T14:23:15.635Z,1015.08
2022-09-06T14:25:08.757Z,1015.03
2022-09-06T14:26:08.745Z,1015.07
2022-09-06T14:28:01.866Z,1015.06
2022-09-06T14:29:01.861Z,1015.08
2022-09-06T14:31:05.940Z,1015.10
2022-09-06T14:32:05.860Z,1015.06
2022-09-06T14:34:09.880Z,1015.12
2022-09-06T14:35:09.870Z,1015.07